createdAt,value
2023-06-19T00:00:53.603Z,25.48
2023-06-19T00:03:22.942Z,25.48
2023-06-19T00:05:55.868Z,25.44
2023-06-19T00:08:30.635Z,25.44
2023-06-19T00:11:01.437Z,25.43
2023-06-19T00:13:35.201Z,25.42
2023-06-19T00:16:08.191Z,25.37
2023-06-19T00:18:42.228Z,25.42
2023-06-19T00:21:10.590Z,25.33
2023-06-19T00:23:41.011Z,25.31
2023-06-19T00:26:18.421Z,25.28
2023-06-19T00:28:46.778Z,25.30
2023-06-19T00:31:17.894Z,25.30
2023-06-19T00:33:48.491Z,25.30
2023-06-19T00:36:28.249Z,25.29
2023-06-19T00:39:05.824Z,25.28
2023-06-19T00:41:35.957Z,25.27
2023-06-19T00:44:04.024Z,25.23
2023-06-19T00:46:34.495Z,25.20
2023-06-19T00:49:06.837Z,25.20
2023-06-19T00:51:44.711Z,25.20
2023-06-19T00:54:16.823Z,25.20
2023-06-19T00:56:47.216Z,25.21
2023-06-19T00:59:21.998Z,25.20
2023-06-19T01:01:52.599Z,25.19
2023-06-19T01:04:24.052Z,25.15
2023-06-19T01:07:14.777Z,25.15
2023-06-19T01:09:49.162Z,25.13
2023-06-19T01:12:29.241Z,25.11
2023-06-19T01:15:02.570Z,25.10
2023-06-19T01:17:31.433Z,25.10
2023-06-19T01:20:12.520Z,25.09
2023-06-19T01:22:49.506Z,25.08
2023-06-19T01:25:21.197Z,25.04
2023-06-19T01:27:49.432Z,25.05
2023-06-19T01:30:19.356Z,25.05
2023-06-19T01:32:57.206Z,25.15
2023-06-19T01:35:32.018Z,25.05
2023-06-19T01:38:03.079Z,24.95
2023-06-19T01:40:36.531Z,24.85
2023-06-19T01:43:05.886Z,24.72
2023-06-19T01:45:34.278Z,24.66
2023-06-19T01:48:05.146Z,24.53
2023-06-19T01:50:35.848Z,24.46
2023-06-19T01:53:08.520Z,24.35
2023-06-19T01:55:38.987Z,24.31
2023-06-19T01:58:18.576Z,24.23
2023-06-19T02:00:46.910Z,24.20
2023-06-19T02:03:20.120Z,24.19
2023-06-19T02:05:53.477Z,24.14
2023-06-19T02:08:22.790Z,24.11
2023-06-19T02:10:53.512Z,24.11
2023-06-19T02:13:21.716Z,24.06
2023-06-19T02:15:52.445Z,24.10
2023-06-19T02:18:21.461Z,24.03
2023-06-19T02:20:54.949Z,23.93
2023-06-19T02:23:26.164Z,23.99
2023-06-19T02:25:54.108Z,23.89
2023-06-19T02:28:25.337Z,23.98
2023-06-19T02:31:00.221Z,23.90
2023-06-19T02:33:29.635Z,23.93
2023-06-19T02:36:05.513Z,23.91
2023-06-19T02:38:36.890Z,23.86
2023-06-19T02:41:04.935Z,23.86
2023-06-19T02:43:35.696Z,23.86
2023-06-19T02:46:05.355Z,23.85
2023-06-19T02:48:35.904Z,23.84
2023-06-19T02:51:03.892Z,23.83
2023-06-19T02:53:32.078Z,23.85
2023-06-19T02:56:03.161Z,23.89
2023-06-19T02:58:35.522Z,23.83
2023-06-19T03:01:10.006Z,23.80
2023-06-19T03:03:41.260Z,23.80
2023-06-19T03:06:16.364Z,23.82
2023-06-19T03:08:48.341Z,23.80
2023-06-19T03:11:21.432Z,23.78
2023-06-19T03:13:59.851Z,23.77
2023-06-19T03:16:27.948Z,23.76
2023-06-19T03:19:01.379Z,23.78
2023-06-19T03:21:32.152Z,23.78
2023-06-19T03:24:02.893Z,23.76
2023-06-19T03:26:37.563Z,23.76
2023-06-19T03:29:07.864Z,23.74
2023-06-19T03:31:42.872Z,23.75
2023-06-19T03:34:13.579Z,23.73
2023-06-19T03:36:41.577Z,23.73
2023-06-19T03:39:11.491Z,23.69
2023-06-19T03:41:41.133Z,23.69
2023-06-19T03:44:11.920Z,23.68
2023-06-19T03:46:44.291Z,23.66
2023-06-19T03:49:21.081Z,23.64
2023-06-19T03:51:50.701Z,23.64
2023-06-19T03:54:22.699Z,23.61
2023-06-19T03:56:57.180Z,23.63
2023-06-19T03:59:25.234Z,23.58
2023-06-19T04:01:57.996Z,23.56
2023-06-19T04:04:27.794Z,23.56
2023-06-19T04:07:00.426Z,23.55
2023-06-19T04:09:28.574Z,23.53
2023-06-19T04:11:57.909Z,23.51
2023-06-19T04:14:31.364Z,23.49
2023-06-19T04:17:00.758Z,23.47
2023-06-19T04:19:36.745Z,23.55
2023-06-19T04:22:07.380Z,23.50
2023-06-19T04:24:35.510Z,23.51
2023-06-19T04:27:11.143Z,23.50
2023-06-19T04:29:48.757Z,23.45
2023-06-19T04:32:19.405Z,23.45
2023-06-19T04:34:48.270Z,23.47
2023-06-19T04:37:20.473Z,23.45
2023-06-19T04:39:48.821Z,23.46
2023-06-19T04:42:21.897Z,23.48
2023-06-19T04:44:50.403Z,23.45
2023-06-19T04:47:22.871Z,23.39
2023-06-19T04:49:50.851Z,23.37
2023-06-19T04:52:29.889Z,23.36
2023-06-19T04:54:57.862Z,23.31
2023-06-19T04:57:31.217Z,23.28
2023-06-19T05:00:05.271Z,23.33
2023-06-19T05:02:34.076Z,23.25
2023-06-19T05:05:05.689Z,23.27
2023-06-19T05:07:33.962Z,23.27
2023-06-19T05:10:05.107Z,23.31
2023-06-19T05:12:34.788Z,23.32
2023-06-19T05:15:03.615Z,23.35
2023-06-19T05:17:31.784Z,23.36
2023-06-19T05:20:00.206Z,23.40
2023-06-19T05:22:28.369Z,23.42
2023-06-19T05:24:56.559Z,23.49
2023-06-19T05:27:24.854Z,23.54
2023-06-19T05:29:54.523Z,23.52
2023-06-19T05:32:22.944Z,23.63
2023-06-19T05:34:51.307Z,23.74
2023-06-19T05:37:19.781Z,23.80
2023-06-19T05:39:48.041Z,23.85
2023-06-19T05:42:16.195Z,23.92
2023-06-19T05:44:44.481Z,24.02
2023-06-19T05:47:14.105Z,24.06
2023-06-19T05:49:42.448Z,24.13
2023-06-19T05:52:10.746Z,24.20
2023-06-19T05:54:38.845Z,24.30
2023-06-19T05:57:07.914Z,24.30
2023-06-19T05:59:36.140Z,24.41
2023-06-19T06:02:05.135Z,24.39
2023-06-19T06:04:37.815Z,24.47
2023-06-19T06:07:06.725Z,24.53
2023-06-19T06:09:35.391Z,24.39
2023-06-19T06:12:03.558Z,24.43
2023-06-19T06:14:32.138Z,24.47
2023-06-19T06:17:00.739Z,24.47
2023-06-19T06:19:29.975Z,24.55
2023-06-19T06:22:01.173Z,24.54
2023-06-19T06:24:29.440Z,24.62
2023-06-19T06:26:57.689Z,24.56
2023-06-19T06:29:25.770Z,24.50
2023-06-19T06:31:54.140Z,24.50
2023-06-19T06:34:22.678Z,24.52
2023-06-19T06:37:05.061Z,24.50
2023-06-19T06:39:36.194Z,24.53
2023-06-19T06:42:04.491Z,24.54
2023-06-19T06:44:33.256Z,24.58
2023-06-19T06:47:02.359Z,24.47
2023-06-19T06:49:30.500Z,24.42
2023-06-19T06:51:58.655Z,24.35
2023-06-19T06:54:27.130Z,24.33
2023-06-19T06:56:59.584Z,24.34
2023-06-19T06:59:28.335Z,24.41
2023-06-19T07:01:57.706Z,24.47
2023-06-19T07:04:25.975Z,24.47
2023-06-19T07:06:54.044Z,24.54
2023-06-19T07:09:23.436Z,24.54
2023-06-19T07:11:53.732Z,24.57
2023-06-19T07:14:24.046Z,24.70
2023-06-19T07:16:52.493Z,24.83
2023-06-19T07:19:20.814Z,24.97
2023-06-19T07:21:49.202Z,25.17
2023-06-19T07:24:17.517Z,25.33
2023-06-19T07:26:45.927Z,25.62
2023-06-19T07:29:14.315Z,25.94
2023-06-19T07:31:44.641Z,26.17
2023-06-19T07:34:13.047Z,26.47
2023-06-19T07:36:41.230Z,26.71
2023-06-19T07:39:09.649Z,26.87
2023-06-19T07:41:37.961Z,27.14
2023-06-19T07:44:06.519Z,27.35
2023-06-19T07:46:34.817Z,27.46
2023-06-19T07:49:04.337Z,27.41
2023-06-19T07:51:33.039Z,27.25
2023-06-19T07:54:01.308Z,26.96
2023-06-19T07:56:29.716Z,26.77
2023-06-19T07:58:58.513Z,26.70
2023-06-19T08:01:26.621Z,26.59
2023-06-19T08:03:55.117Z,26.56
2023-06-19T08:06:24.707Z,26.46
2023-06-19T08:08:53.417Z,26.43
2023-06-19T08:11:21.859Z,26.39
2023-06-19T08:13:50.876Z,26.45
2023-06-19T08:16:19.709Z,26.45
2023-06-19T08:18:48.064Z,26.60
2023-06-19T08:21:17.766Z,26.89
2023-06-19T08:23:47.253Z,27.35
2023-06-19T08:26:15.446Z,27.46
2023-06-19T08:28:44.061Z,27.40
2023-06-19T08:31:12.511Z,27.36
2023-06-19T08:33:40.681Z,27.22
2023-06-19T08:36:08.854Z,27.37
2023-06-19T08:38:36.953Z,27.74
2023-06-19T08:41:06.525Z,28.09
2023-06-19T08:43:34.717Z,28.20
2023-06-19T08:46:12.380Z,28.30
2023-06-19T08:48:41.807Z,28.25
2023-06-19T08:51:10.286Z,28.40
2023-06-19T08:53:46.962Z,28.66
2023-06-19T08:56:16.591Z,28.77
2023-06-19T08:58:44.947Z,28.81
2023-06-19T09:01:14.608Z,28.93
2023-06-19T09:03:42.778Z,29.07
2023-06-19T09:06:11.934Z,29.19
2023-06-19T09:08:40.220Z,29.29
2023-06-19T09:11:10.774Z,29.05
2023-06-19T09:13:40.902Z,28.96
2023-06-19T09:16:10.294Z,28.94
2023-06-19T09:18:47.093Z,28.74
2023-06-19T09:21:19.633Z,28.75
2023-06-19T09:23:48.949Z,28.69
2023-06-19T09:26:19.111Z,28.86
2023-06-19T09:28:51.643Z,28.95
2023-06-19T09:31:19.697Z,28.99
2023-06-19T09:33:47.987Z,29.16
2023-06-19T09:36:16.878Z,28.98
2023-06-19T09:38:44.957Z,28.70
2023-06-19T09:41:13.942Z,28.91
2023-06-19T09:43:46.051Z,29.18
2023-06-19T09:46:17.363Z,29.33
2023-06-19T09:48:47.485Z,29.29
2023-06-19T09:51:20.926Z,29.39
2023-06-19T09:53:52.155Z,29.71
2023-06-19T09:56:23.477Z,30.06
2023-06-19T09:58:54.076Z,30.36
2023-06-19T10:01:25.020Z,30.27
2023-06-19T10:04:03.602Z,30.37
2023-06-19T10:06:33.836Z,30.34
2023-06-19T10:09:10.115Z,30.34
2023-06-19T10:11:53.439Z,30.26
2023-06-19T10:14:21.963Z,30.20
2023-06-19T10:16:51.548Z,30.22
2023-06-19T10:19:23.028Z,30.31
2023-06-19T10:21:55.575Z,30.57
2023-06-19T10:24:26.194Z,30.83
2023-06-19T10:27:04.949Z,30.82
2023-06-19T10:29:41.926Z,30.40
2023-06-19T10:32:13.922Z,30.19
2023-06-19T10:34:42.584Z,30.14
2023-06-19T10:37:22.427Z,30.16
2023-06-19T10:39:50.502Z,30.31
2023-06-19T10:42:18.447Z,30.38
2023-06-19T10:44:46.658Z,30.36
2023-06-19T10:47:17.426Z,30.44
2023-06-19T10:49:45.558Z,30.47
2023-06-19T10:52:13.823Z,30.64
2023-06-19T10:54:41.849Z,30.49
2023-06-19T10:57:10.220Z,30.47
2023-06-19T10:59:40.802Z,30.49
2023-06-19T11:02:09.006Z,30.59
2023-06-19T11:04:41.633Z,30.69
2023-06-19T11:07:10.564Z,30.65
2023-06-19T11:09:38.684Z,30.50
2023-06-19T11:12:09.894Z,30.50
2023-06-19T11:14:41.155Z,30.38
2023-06-19T11:17:09.607Z,30.57
2023-06-19T11:19:39.473Z,30.44
2023-06-19T11:22:09.308Z,30.52
2023-06-19T11:24:37.663Z,30.75
2023-06-19T11:27:06.633Z,30.83
2023-06-19T11:29:36.804Z,30.91
2023-06-19T11:32:09.518Z,31.17
2023-06-19T11:34:38.979Z,31.16
2023-06-19T11:37:15.864Z,31.00
2023-06-19T11:39:46.332Z,30.84
2023-06-19T11:42:15.548Z,30.96
2023-06-19T11:44:56.055Z,31.10
2023-06-19T11:47:24.902Z,31.06
2023-06-19T11:49:53.606Z,31.10
2023-06-19T11:52:23.105Z,30.90
2023-06-19T11:54:51.413Z,30.89
2023-06-19T11:57:19.518Z,30.80
2023-06-19T11:59:48.298Z,30.86
2023-06-19T12:02:16.609Z,30.89
2023-06-19T12:04:44.858Z,31.13
2023-06-19T12:07:13.459Z,31.04
2023-06-19T12:09:44.318Z,31.42
2023-06-19T12:12:12.972Z,31.72
2023-06-19T12:14:41.462Z,31.77
2023-06-19T12:17:09.750Z,31.64
2023-06-19T12:19:37.970Z,31.45
2023-06-19T12:22:06.995Z,31.81
2023-06-19T12:24:35.184Z,32.22
2023-06-19T12:27:05.230Z,32.49
2023-06-19T12:29:33.518Z,32.59
2023-06-19T12:32:04.133Z,32.30
2023-06-19T12:34:32.328Z,32.33
2023-06-19T12:37:00.832Z,32.34
2023-06-19T12:39:28.911Z,32.21
2023-06-19T12:41:56.978Z,32.12
2023-06-19T12:44:26.778Z,31.98
2023-06-19T12:46:55.175Z,31.82
2023-06-19T12:49:23.310Z,31.64
2023-06-19T12:51:53.299Z,31.51
2023-06-19T12:54:21.614Z,31.37
2023-06-19T12:56:51.788Z,31.39
2023-06-19T12:59:20.227Z,31.33
2023-06-19T13:01:49.875Z,31.51
2023-06-19T13:04:18.433Z,31.39
2023-06-19T13:06:46.532Z,31.39
2023-06-19T13:09:14.926Z,31.41
2023-06-19T13:11:43.234Z,31.71
2023-06-19T13:14:11.356Z,31.98
2023-06-19T13:19:12.085Z,31.79
2023-06-19T13:21:40.134Z,31.50
2023-06-19T13:24:08.660Z,31.41
2023-06-19T13:26:37.267Z,31.48
2023-06-19T13:29:05.386Z,31.55
2023-06-19T13:31:35.130Z,31.69
2023-06-19T13:34:03.279Z,31.69
2023-06-19T13:36:34.000Z,31.79
2023-06-19T13:39:03.784Z,31.86
2023-06-19T13:41:33.711Z,31.82
2023-06-19T13:44:02.367Z,31.98
2023-06-19T13:46:33.019Z,31.85
2023-06-19T13:49:02.095Z,31.77
2023-06-19T13:51:30.269Z,31.78
2023-06-19T13:54:00.169Z,31.82
2023-06-19T13:56:28.399Z,32.00
2023-06-19T13:58:56.658Z,32.34
2023-06-19T14:01:26.642Z,32.38
2023-06-19T14:03:54.990Z,32.18
2023-06-19T14:06:23.486Z,32.21
2023-06-19T14:08:51.535Z,32.18
2023-06-19T14:11:21.558Z,31.96
2023-06-19T14:13:49.696Z,31.91
2023-06-19T14:16:18.058Z,31.85
2023-06-19T14:18:46.136Z,31.71
2023-06-19T14:21:14.260Z,31.87
2023-06-19T14:23:44.617Z,32.00
2023-06-19T14:26:12.938Z,31.92
2023-06-19T14:28:42.326Z,31.93
2023-06-19T14:31:10.458Z,31.80
2023-06-19T14:33:39.144Z,31.74
2023-06-19T14:36:07.347Z,31.87
2023-06-19T14:38:36.670Z,31.97
2023-06-19T14:41:05.035Z,31.92
2023-06-19T14:43:34.486Z,31.75
2023-06-19T14:46:06.384Z,31.77
2023-06-19T14:48:34.466Z,31.76
2023-06-19T14:51:03.164Z,31.75
2023-06-19T14:53:31.200Z,31.64
2023-06-19T14:55:59.291Z,31.73
2023-06-19T14:58:29.856Z,31.77
2023-06-19T15:00:59.075Z,31.57
2023-06-19T15:03:28.719Z,31.33
2023-06-19T15:05:56.951Z,31.27
2023-06-19T15:08:25.348Z,31.08
2023-06-19T15:10:53.654Z,31.11
2023-06-19T15:13:21.775Z,31.25
2023-06-19T15:15:51.966Z,31.35
2023-06-19T15:18:20.309Z,31.40
2023-06-19T15:20:50.642Z,31.41
2023-06-19T15:23:25.692Z,31.44
2023-06-19T15:25:54.987Z,31.39
2023-06-19T15:28:36.715Z,31.35
2023-06-19T15:31:14.471Z,31.32
2023-06-19T15:33:45.268Z,31.24
2023-06-19T15:36:20.076Z,31.16
2023-06-19T15:38:54.368Z,31.10
2023-06-19T15:41:28.408Z,31.15
2023-06-19T15:44:06.852Z,31.12
2023-06-19T15:46:41.365Z,31.25
2023-06-19T15:49:21.455Z,31.24
2023-06-19T15:51:51.058Z,31.26
2023-06-19T15:54:19.130Z,31.24
2023-06-19T15:56:47.335Z,31.19
2023-06-19T15:59:16.206Z,31.13
2023-06-19T16:01:44.253Z,31.00
2023-06-19T16:04:14.259Z,31.05
2023-06-19T16:06:53.652Z,31.08
2023-06-19T16:09:31.114Z,31.09
2023-06-19T16:12:02.849Z,31.01
2023-06-19T16:14:36.324Z,30.89
2023-06-19T16:17:07.830Z,30.70
2023-06-19T16:19:42.608Z,30.63
2023-06-19T16:22:12.328Z,30.49
2023-06-19T16:24:45.500Z,30.34
2023-06-19T16:27:13.662Z,30.42
2023-06-19T16:29:55.605Z,30.33
2023-06-19T16:32:33.898Z,30.37
2023-06-19T16:35:17.404Z,30.30
2023-06-19T16:37:47.552Z,30.33
2023-06-19T16:40:20.072Z,30.37
2023-06-19T16:42:52.470Z,30.22
2023-06-19T16:45:28.031Z,30.11
2023-06-19T16:47:56.430Z,30.09
2023-06-19T16:50:32.749Z,30.10
2023-06-19T16:53:06.799Z,30.05
2023-06-19T16:55:39.937Z,30.01
2023-06-19T16:58:09.078Z,29.99
2023-06-19T17:00:51.100Z,29.89
2023-06-19T17:03:24.624Z,29.76
2023-06-19T17:05:54.590Z,29.63
2023-06-19T17:08:28.447Z,29.32
2023-06-19T17:11:04.642Z,29.15
2023-06-19T17:13:37.308Z,28.98
2023-06-19T17:16:07.413Z,28.73
2023-06-19T17:18:42.417Z,28.66
2023-06-19T17:21:17.561Z,28.55
2023-06-19T17:23:56.806Z,28.32
2023-06-19T17:26:32.150Z,28.29
2023-06-19T17:29:10.452Z,28.18
2023-06-19T17:31:42.866Z,28.19
2023-06-19T17:34:15.131Z,28.03
2023-06-19T17:36:55.422Z,28.05
2023-06-19T17:39:34.204Z,28.00
2023-06-19T17:42:06.324Z,27.99
2023-06-19T17:44:34.544Z,27.97
2023-06-19T17:47:03.009Z,27.99
2023-06-19T17:49:31.101Z,28.02
2023-06-19T17:51:59.341Z,28.07
2023-06-19T17:54:27.315Z,28.11
2023-06-19T17:56:55.252Z,28.09
2023-06-19T17:59:24.777Z,28.11
2023-06-19T18:01:53.100Z,28.04
2023-06-19T18:04:21.107Z,27.96
2023-06-19T18:06:49.457Z,27.89
2023-06-19T18:09:17.513Z,27.76
2023-06-19T18:11:46.395Z,27.73
2023-06-19T18:14:14.695Z,27.74
2023-06-19T18:16:44.209Z,27.66
2023-06-19T18:19:12.281Z,27.64
2023-06-19T18:21:41.264Z,27.64
2023-06-19T18:24:09.541Z,27.66
2023-06-19T18:26:37.459Z,27.71
2023-06-19T18:29:05.498Z,27.66
2023-06-19T18:31:33.479Z,27.64
2023-06-19T18:34:03.260Z,27.58
2023-06-19T18:36:31.388Z,27.60
2023-06-19T18:38:59.466Z,27.57
2023-06-19T18:41:27.578Z,27.59
2023-06-19T18:43:55.743Z,27.58
2023-06-19T18:46:24.028Z,27.58
2023-06-19T18:48:52.253Z,27.57
2023-06-19T18:51:21.717Z,27.57
2023-06-19T18:53:50.209Z,27.58
2023-06-19T18:56:27.373Z,27.55
2023-06-19T18:58:55.387Z,27.50
2023-06-19T19:01:23.427Z,27.46
2023-06-19T19:03:51.701Z,27.43
2023-06-19T19:06:21.108Z,27.39
2023-06-19T19:08:49.292Z,27.31
2023-06-19T19:11:17.290Z,27.25
2023-06-19T19:13:45.424Z,27.17
2023-06-19T19:16:13.503Z,27.13
2023-06-19T19:18:41.760Z,27.09
2023-06-19T19:21:09.721Z,27.03
2023-06-19T19:23:39.240Z,26.98
2023-06-19T19:26:08.121Z,26.98
2023-06-19T19:28:36.437Z,26.97
2023-06-19T19:31:04.626Z,26.95
2023-06-19T19:33:32.643Z,26.90
2023-06-19T19:36:02.302Z,26.79
2023-06-19T19:38:30.349Z,26.65
2023-06-19T19:41:00.054Z,26.56
2023-06-19T19:43:28.315Z,26.52
2023-06-19T19:45:56.463Z,26.48
2023-06-19T19:48:24.466Z,26.47
2023-06-19T19:50:52.509Z,26.48
2023-06-19T19:53:20.458Z,26.43
2023-06-19T19:55:52.324Z,26.41
2023-06-19T19:58:22.908Z,26.39
2023-06-19T20:00:51.156Z,26.41
2023-06-19T20:03:19.321Z,26.41
2023-06-19T20:05:47.453Z,26.40
2023-06-19T20:08:15.479Z,26.36
2023-06-19T20:10:44.573Z,26.29
2023-06-19T20:13:53.343Z,26.23
2023-06-19T20:16:37.673Z,26.11
2023-06-19T20:19:17.331Z,26.05
2023-06-19T20:21:50.133Z,25.96
2023-06-19T20:24:23.700Z,25.81
2023-06-19T20:26:52.285Z,25.72
2023-06-19T20:29:25.032Z,25.54
2023-06-19T20:32:03.263Z,25.44
2023-06-19T20:34:36.072Z,25.40
2023-06-19T20:37:04.272Z,25.42
2023-06-19T20:39:40.116Z,25.46
2023-06-19T20:42:10.689Z,25.50
2023-06-19T20:44:41.298Z,25.51
2023-06-19T20:47:10.919Z,25.51
2023-06-19T20:49:38.918Z,25.51
2023-06-19T20:52:11.115Z,25.49
2023-06-19T20:54:41.133Z,25.42
2023-06-19T20:57:12.257Z,25.37
2023-06-19T20:59:40.224Z,25.34
2023-06-19T21:02:14.500Z,25.31
2023-06-19T21:04:47.171Z,25.27
2023-06-19T21:07:15.559Z,25.25
2023-06-19T21:09:47.922Z,25.24
2023-06-19T21:15:14.527Z,25.19
2023-06-19T21:18:16.827Z,25.16
2023-06-19T21:20:46.864Z,25.11
2023-06-19T21:23:18.840Z,25.08
2023-06-19T21:25:49.478Z,25.06
2023-06-19T21:28:34.214Z,25.04
2023-06-19T21:31:06.272Z,24.99
2023-06-19T21:33:35.733Z,24.88
2023-06-19T21:36:04.042Z,24.82
2023-06-19T21:38:39.934Z,24.71
2023-06-19T21:41:11.763Z,24.66
2023-06-19T21:43:39.782Z,24.65
2023-06-19T21:46:11.577Z,24.61
2023-06-19T21:51:55.200Z,24.65
2023-06-19T21:54:25.060Z,24.68
2023-06-19T21:56:54.818Z,24.67
2023-06-19T21:59:27.784Z,24.65
2023-06-19T22:02:00.196Z,24.65
2023-06-19T22:04:30.869Z,24.62
2023-06-19T22:10:00.304Z,24.54
2023-06-19T22:12:45.915Z,24.46
2023-06-19T22:15:18.243Z,24.47
2023-06-19T22:17:48.005Z,24.44
2023-06-19T22:20:32.762Z,24.43
2023-06-19T22:26:00.542Z,24.42
2023-06-19T22:28:39.899Z,24.42
2023-06-19T22:31:30.580Z,24.40
2023-06-19T22:34:11.855Z,24.37
2023-06-19T22:36:59.089Z,24.36
2023-06-19T22:39:33.775Z,24.32
2023-06-19T22:42:15.411Z,24.17
2023-06-19T22:45:00.361Z,24.11
2023-06-19T22:47:33.300Z,23.99
2023-06-19T22:50:12.100Z,23.98
2023-06-19T22:52:51.183Z,24.01
2023-06-19T22:55:30.168Z,24.02
2023-06-19T22:58:04.499Z,24.00
2023-06-19T23:00:48.036Z,23.93
2023-06-19T23:03:20.844Z,23.91
2023-06-19T23:06:26.792Z,23.88
2023-06-19T23:15:18.472Z,23.84
2023-06-19T23:18:10.524Z,23.71
2023-06-19T23:21:02.862Z,23.58
2023-06-19T23:23:51.100Z,23.52
2023-06-19T23:26:49.009Z,23.47
2023-06-19T23:29:43.789Z,23.47
2023-06-19T23:32:29.729Z,23.44
2023-06-19T23:41:50.437Z,23.54
2023-06-19T23:44:46.088Z,23.54
2023-06-19T23:47:30.977Z,23.56
2023-06-19T23:50:16.865Z,23.51
2023-06-19T23:53:10.272Z,23.48
2023-06-19T23:56:07.405Z,23.38
2023-06-19T23:58:58.022Z,23.30
